Time;durP1;ratioP1;P1;durP2;ratioP2;P2;SDS_P1;SDS_P2;PMS_P1;PMS_P2;Temp;Humidity;BMP_temperature;BMP_pressure;BME280_temperature;BME280_humidity;BME280_pressure;Samples;Min_cycle;Max_cycle;Signal;HPM_P1;HPM_P2
2023/03/21 00:01:21;;;;;;;15.70;14.10;;;10.80;99.90;;;;;;5093342;28;21024;-70
2023/03/21 00:03:48;;;;;;;17.53;15.63;;;10.80;99.90;;;;;;5090103;28;20466;-70
2023/03/21 00:06:16;;;;;;;18.20;16.00;;;10.80;99.90;;;;;;5090897;28;20819;-70
2023/03/21 00:08:43;;;;;;;17.13;14.60;;;10.80;99.90;;;;;;5096631;28;20535;-70
2023/03/21 00:11:12;;;;;;;16.60;15.10;;;10.80;99.90;;;;;;5094117;28;21119;-71
2023/03/21 00:13:41;;;;;;;15.57;14.07;;;10.80;99.90;;;;;;5102841;28;20465;-71
2023/03/21 00:16:14;;;;;;;15.27;13.77;;;10.80;99.90;;;;;;5086866;28;20465;-71
2023/03/21 00:18:45;;;;;;;17.27;15.00;;;10.80;99.90;;;;;;5092577;28;20500;-71
2023/03/21 00:21:14;;;;;;;16.03;14.40;;;10.70;99.90;;;;;;5090752;28;20833;-70
2023/03/21 00:23:43;;;;;;;20.70;15.23;;;10.70;99.90;;;;;;5095698;28;20462;-72
2023/03/21 00:26:10;;;;;;;17.10;14.30;;;10.80;99.90;;;;;;5095922;28;20794;-71
2023/03/21 00:28:37;;;;;;;16.50;14.43;;;10.80;99.90;;;;;;5098575;28;20508;-71
2023/03/21 00:31:05;;;;;;;24.77;15.33;;;10.70;99.90;;;;;;5089946;28;20461;-69
2023/03/21 00:33:33;;;;;;;16.70;15.03;;;10.80;99.90;;;;;;5091044;28;20570;-71
2023/03/21 00:36:00;;;;;;;16.03;14.43;;;10.70;99.90;;;;;;5093336;28;20515;-69
2023/03/21 00:38:27;;;;;;;17.10;14.63;;;10.70;99.90;;;;;;5097194;28;20469;-72
2023/03/21 00:40:55;;;;;;;17.50;14.50;;;10.70;99.90;;;;;;5094291;28;20457;-70
2023/03/21 00:43:28;;;;;;;20.40;14.73;;;10.70;99.90;;;;;;5093631;28;20888;-70
2023/03/21 00:45:57;;;;;;;20.20;15.27;;;10.70;99.90;;;;;;5090153;28;20486;-71
2023/03/21 00:48:24;;;;;;;17.10;14.77;;;10.70;99.90;;;;;;5088155;28;20566;-73
2023/03/21 00:50:52;;;;;;;21.77;15.10;;;10.70;99.90;;;;;;5093760;28;20461;-70
2023/03/21 00:53:19;;;;;;;23.43;14.80;;;10.60;99.90;;;;;;5095070;28;20465;-72
2023/03/21 00:55:48;;;;;;;16.40;14.70;;;10.70;99.90;;;;;;5097222;28;20990;-71
2023/03/21 00:58:16;;;;;;;18.37;14.37;;;10.70;99.90;;;;;;5090942;28;20469;-70
2023/03/21 01:00:45;;;;;;;17.70;14.40;;;10.70;99.90;;;;;;5092884;28;20466;-71
2023/03/21 01:03:14;;;;;;;20.20;13.50;;;10.70;99.90;;;;;;5093754;28;20473;-71
2023/03/21 01:08:28;;;;;;;20.03;13.03;;;10.50;99.90;;;;;;5092099;28;21078;-71
2023/03/21 01:10:56;;;;;;;18.27;13.90;;;10.50;99.90;;;;;;5091148;28;20470;-71
2023/03/21 01:13:25;;;;;;;21.83;13.73;;;10.50;99.90;;;;;;5092421;28;20462;-70
2023/03/21 01:15:54;;;;;;;19.43;14.20;;;10.60;99.90;;;;;;5087970;28;20466;-70
2023/03/21 01:18:26;;;;;;;16.90;15.17;;;10.60;99.90;;;;;;5089968;28;20993;-70
2023/03/21 01:20:53;;;;;;;18.17;13.20;;;10.60;99.90;;;;;;5095948;28;20462;-70
2023/03/21 01:23:20;;;;;;;17.70;13.50;;;10.50;99.90;;;;;;5099294;28;20463;-72
2023/03/21 01:25:49;;;;;;;17.37;13.00;;;10.60;99.90;;;;;;5096567;28;20919;-72
2023/03/21 01:28:16;;;;;;;14.20;13.00;;;10.50;99.90;;;;;;5092232;28;20494;-72
2023/03/21 01:30:47;;;;;;;20.57;12.97;;;10.50;99.90;;;;;;5086899;28;20462;-70
2023/03/21 01:33:15;;;;;;;14.67;13.10;;;10.60;99.90;;;;;;5088128;28;20488;-73
2023/03/21 01:35:42;;;;;;;14.37;12.83;;;10.50;99.90;;;;;;5093951;28;20466;-70
2023/03/21 01:38:10;;;;;;;16.07;12.90;;;10.50;99.90;;;;;;5092443;28;20960;-69
2023/03/21 01:40:39;;;;;;;23.17;12.93;;;10.50;99.90;;;;;;5093535;28;20479;-72
2023/03/21 01:43:20;;;;;;;14.80;12.00;;;10.50;99.90;;;;;;5085839;28;20527;-70
2023/03/21 01:46:12;;;;;;;16.00;14.23;;;10.50;99.90;;;;;;5092111;28;20971;-73
2023/03/21 01:48:41;;;;;;;17.87;13.10;;;10.40;99.90;;;;;;5089633;28;20925;-70
2023/03/21 01:51:12;;;;;;;13.50;12.23;;;10.50;99.90;;;;;;5089246;28;20454;-71
2023/03/21 01:53:40;;;;;;;20.17;13.50;;;10.50;99.90;;;;;;5091394;28;20512;-71
2023/03/21 01:56:13;;;;;;;18.57;13.87;;;10.50;99.90;;;;;;5099903;28;20457;-70
2023/03/21 01:58:42;;;;;;;20.70;14.90;;;10.40;99.90;;;;;;5093866;28;20813;-71
2023/03/21 02:01:11;;;;;;;16.37;12.63;;;10.40;99.90;;;;;;5090883;28;20465;-71
2023/03/21 02:03:49;;;;;;;27.30;16.30;;;10.40;99.90;;;;;;5094686;28;20462;-70
2023/03/21 02:06:19;;;;;;;24.03;18.27;;;10.40;99.90;;;;;;5091536;28;20825;-70
2023/03/21 02:08:47;;;;;;;18.53;12.80;;;10.30;99.90;;;;;;5096280;28;20516;-72
2023/03/21 02:11:15;;;;;;;14.90;12.07;;;10.30;99.90;;;;;;5088361;28;20458;-70
2023/03/21 02:13:42;;;;;;;22.67;15.33;;;10.20;99.90;;;;;;5090150;28;20461;-72
2023/03/21 02:16:17;;;;;;;18.20;14.77;;;10.10;99.90;;;;;;5090906;28;20956;-72
2023/03/21 02:18:55;;;;;;;24.23;16.60;;;10.00;99.90;;;;;;5088073;28;20469;-70
2023/03/21 02:21:57;;;;;;;15.03;11.40;;;9.90;99.90;;;;;;5099006;28;20461;-73
2023/03/21 02:24:46;;;;;;;15.07;13.53;;;9.80;99.90;;;;;;5095819;28;20543;-70
2023/03/21 02:27:17;;;;;;;19.53;12.50;;;9.70;99.90;;;;;;5091386;28;22348;-69
2023/03/21 02:30:17;;;;;;;17.40;13.37;;;9.60;99.90;;;;;;5094020;28;20578;-70
2023/03/21 02:33:14;;;;;;;15.03;13.43;;;9.60;99.90;;;;;;5084182;28;20470;-71
2023/03/21 02:35:56;;;;;;;15.33;11.03;;;9.50;99.90;;;;;;5099430;28;20963;-70
2023/03/21 02:38:29;;;;;;;15.47;13.10;;;9.50;99.90;;;;;;5091972;28;20468;-71
2023/03/21 02:41:02;;;;;;;16.93;11.73;;;9.60;99.90;;;;;;5098512;28;20904;-70
2023/03/21 02:43:37;;;;;;;15.50;12.73;;;9.70;99.90;;;;;;5096352;28;20491;-70
2023/03/21 02:46:11;;;;;;;18.57;11.87;;;9.70;99.90;;;;;;5095811;28;20453;-71
2023/03/21 02:48:45;;;;;;;14.93;12.67;;;9.70;99.90;;;;;;5100061;28;20500;-70
2023/03/21 02:51:16;;;;;;;13.27;11.60;;;9.70;99.90;;;;;;5094135;28;21021;-72
2023/03/21 02:53:50;;;;;;;16.00;11.23;;;9.70;99.90;;;;;;5089312;28;20465;-70
2023/03/21 02:56:18;;;;;;;18.00;12.30;;;9.70;99.90;;;;;;5098839;28;20522;-71
2023/03/21 02:58:48;;;;;;;14.43;11.87;;;9.70;99.90;;;;;;5102097;28;20460;-70
2023/03/21 03:01:14;;;;;;;16.93;12.00;;;9.70;99.90;;;;;;5094429;28;20461;-70
2023/03/21 03:03:42;;;;;;;16.80;11.07;;;9.70;99.90;;;;;;5096901;28;20488;-72
2023/03/21 03:06:15;;;;;;;19.67;13.00;;;9.80;99.90;;;;;;5087623;28;20462;-72
2023/03/21 03:08:57;;;;;;;21.97;12.50;;;9.80;99.90;;;;;;5091100;28;20467;-70
2023/03/21 03:11:28;;;;;;;24.83;11.93;;;9.80;99.90;;;;;;5094163;28;20495;-70
2023/03/21 03:14:08;;;;;;;16.60;11.60;;;9.90;99.90;;;;;;5098296;28;21149;-72
2023/03/21 03:16:42;;;;;;;16.77;11.80;;;9.90;99.90;;;;;;5089511;28;20458;-70
2023/03/21 03:19:11;;;;;;;25.73;11.77;;;10.00;99.90;;;;;;5095704;28;20460;-71
2023/03/21 03:21:42;;;;;;;14.60;11.97;;;10.00;99.90;;;;;;5091930;28;20456;-71
2023/03/21 03:24:15;;;;;;;21.10;12.63;;;9.90;99.90;;;;;;5091252;28;20454;-72
2023/03/21 03:26:47;;;;;;;21.23;11.87;;;10.00;99.90;;;;;;5098855;28;20895;-72
2023/03/21 03:29:17;;;;;;;21.50;12.23;;;9.90;99.90;;;;;;5101605;28;20559;-70
2023/03/21 03:31:48;;;;;;;18.90;12.27;;;9.90;99.90;;;;;;5093194;28;20510;-70
2023/03/21 03:34:21;;;;;;;23.53;13.30;;;9.90;99.90;;;;;;5096482;28;20465;-70
2023/03/21 03:36:55;;;;;;;23.30;13.10;;;10.00;99.90;;;;;;5090053;28;20469;-70
2023/03/21 03:39:27;;;;;;;24.87;12.63;;;10.00;99.90;;;;;;5090779;28;20472;-70
2023/03/21 03:41:58;;;;;;;15.87;12.60;;;10.00;99.90;;;;;;5094263;28;20485;-70
2023/03/21 03:44:27;;;;;;;16.20;11.73;;;10.00;99.90;;;;;;5093678;28;20461;-70
2023/03/21 03:46:59;;;;;;;26.10;12.93;;;10.00;99.90;;;;;;5092554;28;20551;-70
2023/03/21 03:49:30;;;;;;;17.63;12.50;;;10.00;99.90;;;;;;5093280;28;20719;-70
2023/03/21 03:52:01;;;;;;;19.47;12.47;;;10.00;99.90;;;;;;5089834;28;20466;-69
2023/03/21 03:54:33;;;;;;;12.80;11.30;;;10.00;99.90;;;;;;5094981;28;20488;-72
2023/03/21 03:57:00;;;;;;;19.63;11.97;;;10.00;99.90;;;;;;5097636;28;20860;-71
2023/03/21 03:59:27;;;;;;;21.40;12.60;;;10.10;99.90;;;;;;5088934;28;20462;-72
2023/03/21 04:01:54;;;;;;;16.70;12.40;;;10.20;99.90;;;;;;5090731;28;20461;-70
2023/03/21 04:04:27;;;;;;;22.17;12.20;;;10.10;99.90;;;;;;5090571;28;20988;-72
2023/03/21 04:06:54;;;;;;;20.63;12.43;;;10.10;99.90;;;;;;5093820;28;20732;-69
2023/03/21 04:09:21;;;;;;;17.70;12.90;;;10.10;99.90;;;;;;5095516;28;20566;-70
2023/03/21 04:11:49;;;;;;;23.23;12.10;;;10.10;99.90;;;;;;5097820;28;21052;-71
2023/03/21 04:14:16;;;;;;;24.70;12.83;;;10.20;99.90;;;;;;5099380;28;20454;-72
2023/03/21 04:16:43;;;;;;;15.00;11.23;;;10.20;99.90;;;;;;5088522;28;20541;-71
2023/03/21 04:19:10;;;;;;;21.97;11.60;;;10.20;99.90;;;;;;5090861;28;20473;-70
2023/03/21 04:21:36;;;;;;;21.90;12.23;;;10.10;99.90;;;;;;5095309;28;20462;-72
2023/03/21 04:24:04;;;;;;;16.63;11.27;;;10.10;99.90;;;;;;5101756;28;20462;-70
2023/03/21 04:26:32;;;;;;;21.17;12.63;;;10.10;99.90;;;;;;5100106;28;20478;-69
2023/03/21 04:29:01;;;;;;;18.03;11.10;;;10.10;99.90;;;;;;5093299;28;20586;-72
2023/03/21 04:31:32;;;;;;;13.83;11.93;;;10.10;99.90;;;;;;5090235;28;20510;-69
2023/03/21 04:34:00;;;;;;;21.33;11.97;;;10.10;99.90;;;;;;5093889;28;20466;-70
2023/03/21 04:36:29;;;;;;;19.23;12.20;;;10.10;99.90;;;;;;5087357;28;20476;-69
2023/03/21 04:39:00;;;;;;;20.40;11.70;;;10.00;99.90;;;;;;5092904;28;20551;-69
2023/03/21 04:41:27;;;;;;;14.50;11.00;;;10.00;99.90;;;;;;5098278;28;20496;-69
2023/03/21 04:43:56;;;;;;;17.67;12.00;;;9.90;99.90;;;;;;5096010;28;20501;-72
2023/03/21 04:46:24;;;;;;;25.20;18.20;;;9.90;99.90;;;;;;5089179;28;20469;-68
2023/03/21 04:48:52;;;;;;;23.83;21.30;;;9.90;99.90;;;;;;5091762;28;20458;-69
2023/03/21 04:51:18;;;;;;;25.30;23.00;;;9.80;99.90;;;;;;5090187;28;20504;-71
2023/03/21 04:53:48;;;;;;;29.00;25.70;;;9.70;99.90;;;;;;5093986;28;20450;-70
2023/03/21 04:56:15;;;;;;;28.73;24.27;;;9.70;99.90;;;;;;5094187;28;20549;-69
2023/03/21 04:58:42;;;;;;;27.20;24.73;;;9.60;99.90;;;;;;5096295;28;20567;-69
2023/03/21 05:01:09;;;;;;;34.83;24.47;;;9.60;99.90;;;;;;5086377;28;20462;-70
2023/03/21 05:03:39;;;;;;;28.23;25.63;;;9.60;99.90;;;;;;5092009;28;20536;-68
2023/03/21 05:06:07;;;;;;;27.53;25.03;;;9.60;99.90;;;;;;5090947;28;20485;-68
2023/03/21 05:08:34;;;;;;;27.27;24.43;;;9.60;99.90;;;;;;5093499;28;20503;-69
2023/03/21 05:11:01;;;;;;;30.80;25.77;;;9.60;99.90;;;;;;5091258;28;20485;-68
2023/03/21 05:13:28;;;;;;;33.20;24.00;;;9.60;99.90;;;;;;5082859;28;20469;-68
2023/03/21 05:15:55;;;;;;;37.87;25.00;;;9.60;99.90;;;;;;5088256;28;20496;-70
2023/03/21 05:18:23;;;;;;;31.93;25.20;;;9.60;99.90;;;;;;5086519;28;23580;-69
2023/03/21 05:20:54;;;;;;;27.90;25.00;;;9.50;99.90;;;;;;5088972;28;20461;-69
2023/03/21 05:23:21;;;;;;;25.23;23.20;;;9.50;99.90;;;;;;5098185;28;20544;-69
2023/03/21 05:25:48;;;;;;;27.53;23.50;;;9.50;99.90;;;;;;5095702;28;20469;-69
2023/03/21 05:28:16;;;;;;;26.57;23.93;;;9.50;99.90;;;;;;5090860;28;20476;-69
2023/03/21 05:30:43;;;;;;;27.53;25.00;;;9.50;99.90;;;;;;5096747;28;20491;-69
2023/03/21 05:33:10;;;;;;;26.30;23.97;;;9.50;99.90;;;;;;5096663;28;20462;-71
2023/03/21 05:35:38;;;;;;;25.20;22.87;;;9.40;99.90;;;;;;5093576;28;20462;-70
2023/03/21 05:38:07;;;;;;;26.43;24.00;;;9.40;99.90;;;;;;5093599;28;20461;-69
2023/03/21 05:40:34;;;;;;;27.67;24.77;;;9.40;99.90;;;;;;5090543;28;20971;-70
2023/03/21 05:43:00;;;;;;;29.90;26.80;;;9.40;99.90;;;;;;5090933;28;20498;-71
2023/03/21 05:45:27;;;;;;;28.07;23.77;;;9.40;99.90;;;;;;5086680;28;20477;-70
2023/03/21 05:47:54;;;;;;;27.13;24.43;;;9.40;99.90;;;;;;5088577;28;20500;-71
2023/03/21 05:50:21;;;;;;;26.90;24.10;;;9.40;99.90;;;;;;5088417;28;20470;-70
2023/03/21 05:52:48;;;;;;;29.77;24.80;;;9.40;99.90;;;;;;5094033;28;20494;-71
2023/03/21 05:55:16;;;;;;;26.07;23.50;;;9.40;99.90;;;;;;5092373;28;20464;-71
2023/03/21 05:57:43;;;;;;;28.90;24.60;;;9.40;99.90;;;;;;5090941;28;20515;-69
2023/03/21 06:00:11;;;;;;;26.03;23.50;;;9.40;99.90;;;;;;5095166;28;20461;-71
2023/03/21 06:02:38;;;;;;;27.33;23.60;;;9.40;99.90;;;;;;5098801;28;20480;-71
2023/03/21 06:05:06;;;;;;;28.53;24.40;;;9.40;99.90;;;;;;5095476;28;20465;-69
2023/03/21 06:07:34;;;;;;;25.50;23.00;;;9.40;99.90;;;;;;5096438;28;20462;-71
2023/03/21 06:10:01;;;;;;;25.93;22.23;;;9.50;99.90;;;;;;5097986;28;20553;-69
2023/03/21 06:12:29;;;;;;;30.80;22.80;;;9.50;99.90;;;;;;5094189;28;20455;-69
2023/03/21 06:14:56;;;;;;;37.13;23.90;;;9.50;99.90;;;;;;5092516;28;20465;-69
2023/03/21 06:17:22;;;;;;;23.43;21.13;;;9.60;99.90;;;;;;5092298;28;20461;-71
2023/03/21 06:19:50;;;;;;;25.33;19.80;;;9.70;99.90;;;;;;5093503;28;20499;-69
2023/03/21 06:22:16;;;;;;;27.10;18.80;;;9.80;99.90;;;;;;5090233;28;20976;-70
2023/03/21 06:24:43;;;;;;;21.07;17.87;;;9.80;99.90;;;;;;5093748;28;20469;-69
2023/03/21 06:27:10;;;;;;;22.10;15.20;;;9.80;99.90;;;;;;5095090;28;21037;-70
2023/03/21 06:29:39;;;;;;;17.90;15.70;;;9.90;99.90;;;;;;5091364;28;20519;-71
2023/03/21 06:32:06;;;;;;;14.60;13.40;;;9.90;99.90;;;;;;5094606;28;20468;-70
2023/03/21 06:34:33;;;;;;;17.23;13.10;;;9.90;99.90;;;;;;5090516;28;20555;-70
2023/03/21 06:37:00;;;;;;;19.40;15.23;;;9.90;99.90;;;;;;5101133;28;20466;-69
2023/03/21 06:39:27;;;;;;;17.63;11.90;;;9.80;99.90;;;;;;5099322;28;20463;-69
2023/03/21 06:41:54;;;;;;;13.53;12.23;;;9.80;99.90;;;;;;5099308;28;20489;-69
2023/03/21 06:44:21;;;;;;;18.27;12.30;;;9.80;99.90;;;;;;5091231;28;20454;-69
2023/03/21 06:46:51;;;;;;;12.30;11.10;;;9.90;99.90;;;;;;5090540;28;20457;-69
2023/03/21 06:49:18;;;;;;;11.60;10.50;;;9.90;99.90;;;;;;5100924;28;20491;-69
2023/03/21 06:51:45;;;;;;;11.97;10.73;;;10.00;99.90;;;;;;5095150;28;20497;-71
2023/03/21 06:54:13;;;;;;;11.30;10.43;;;10.00;99.90;;;;;;5097479;28;20474;-71
2023/03/21 06:56:40;;;;;;;23.23;10.93;;;10.00;99.90;;;;;;5095846;28;20467;-71
2023/03/21 06:59:07;;;;;;;12.90;10.30;;;10.00;99.90;;;;;;5095042;28;20466;-71
2023/03/21 07:01:34;;;;;;;16.80;10.20;;;10.00;99.90;;;;;;5090111;28;20461;-71
2023/03/21 07:04:03;;;;;;;11.27;9.93;;;10.00;99.90;;;;;;5098770;28;20511;-69
2023/03/21 07:06:30;;;;;;;13.43;9.73;;;10.10;99.90;;;;;;5101238;28;20465;-69
2023/03/21 07:08:57;;;;;;;11.70;8.70;;;10.20;99.90;;;;;;5092173;28;20454;-69
2023/03/21 07:11:24;;;;;;;9.70;8.70;;;10.20;99.90;;;;;;5088523;28;21081;-69
2023/03/21 07:13:52;;;;;;;10.50;8.70;;;10.40;99.90;;;;;;5094046;28;20515;-72
2023/03/21 07:16:21;;;;;;;12.97;8.80;;;10.40;99.90;;;;;;5089720;28;20465;-69
2023/03/21 07:18:48;;;;;;;15.13;9.00;;;10.30;99.90;;;;;;5094758;28;20558;-69
2023/03/21 07:21:17;;;;;;;15.67;8.70;;;10.30;99.90;;;;;;5100514;28;20457;-70
2023/03/21 07:23:45;;;;;;;10.30;9.30;;;10.30;99.90;;;;;;5102482;28;20469;-69
2023/03/21 07:26:14;;;;;;;15.07;12.10;;;10.20;99.90;;;;;;5097664;28;20666;-69
2023/03/21 07:28:41;;;;;;;24.13;13.30;;;10.20;99.90;;;;;;5095657;28;20821;-69
2023/03/21 07:31:08;;;;;;;18.17;16.03;;;10.20;99.90;;;;;;5094338;28;20485;-68
2023/03/21 07:33:35;;;;;;;19.97;17.93;;;10.20;99.90;;;;;;5091211;28;20466;-68
2023/03/21 07:36:02;;;;;;;21.93;19.77;;;10.10;99.90;;;;;;5087153;28;20480;-68
2023/03/21 07:38:30;;;;;;;24.03;21.97;;;10.20;99.90;;;;;;5091489;28;20462;-68
2023/03/21 07:41:00;;;;;;;22.60;20.60;;;10.20;99.90;;;;;;5094691;28;20495;-68
2023/03/21 07:43:26;;;;;;;29.33;22.70;;;10.10;99.90;;;;;;5092280;28;20569;-69
2023/03/21 07:45:57;;;;;;;23.60;21.80;;;10.10;99.90;;;;;;5087376;28;21028;-69
2023/03/21 07:48:23;;;;;;;23.67;21.97;;;10.10;99.90;;;;;;5092182;28;20460;-69
2023/03/21 07:50:50;;;;;;;22.80;21.17;;;10.10;99.90;;;;;;5092358;28;21110;-68
2023/03/21 07:53:17;;;;;;;25.00;21.83;;;10.10;99.90;;;;;;5092486;28;20457;-69
2023/03/21 07:55:50;;;;;;;24.27;22.37;;;10.10;99.90;;;;;;5087439;28;20486;-69
2023/03/21 07:58:17;;;;;;;22.40;20.60;;;10.10;99.90;;;;;;5092769;28;20457;-70
2023/03/21 08:00:44;;;;;;;24.30;22.30;;;10.20;99.90;;;;;;5093870;28;20458;-69
2023/03/21 08:03:11;;;;;;;24.03;21.80;;;10.20;99.90;;;;;;5089000;28;20500;-70
2023/03/21 08:05:38;;;;;;;23.23;21.20;;;10.20;99.90;;;;;;5089711;28;20469;-70
2023/03/21 08:08:05;;;;;;;22.90;20.90;;;10.20;99.90;;;;;;5095542;28;20743;-69
2023/03/21 08:10:33;;;;;;;24.73;22.43;;;10.30;99.90;;;;;;5087057;28;20642;-69
2023/03/21 08:13:01;;;;;;;24.37;22.37;;;10.20;99.90;;;;;;5088705;28;20457;-69
2023/03/21 08:15:28;;;;;;;26.47;20.27;;;10.20;99.90;;;;;;5088321;28;20529;-69
2023/03/21 08:17:55;;;;;;;21.67;19.97;;;10.30;99.90;;;;;;5095989;28;20457;-70
2023/03/21 08:20:22;;;;;;;22.60;20.60;;;10.30;99.90;;;;;;5090118;28;20477;-70
2023/03/21 08:22:50;;;;;;;22.37;20.07;;;10.30;99.90;;;;;;5088613;28;20465;-69
2023/03/21 08:25:18;;;;;;;23.03;20.83;;;10.30;99.90;;;;;;5093734;28;21065;-72
2023/03/21 08:27:47;;;;;;;22.87;20.70;;;10.30;99.90;;;;;;5089338;28;20575;-71
2023/03/21 08:30:17;;;;;;;23.03;20.67;;;10.40;99.90;;;;;;5088948;28;20518;-69
2023/03/21 08:32:44;;;;;;;22.50;20.60;;;10.30;99.90;;;;;;5096406;28;20466;-71
2023/03/21 08:35:14;;;;;;;22.87;20.33;;;10.40;99.90;;;;;;5093088;28;20469;-70
2023/03/21 08:37:41;;;;;;;22.57;20.30;;;10.40;99.90;;;;;;5087427;28;20486;-71
2023/03/21 08:40:12;;;;;;;24.30;20.80;;;10.40;99.90;;;;;;5085675;28;20466;-71
2023/03/21 08:42:40;;;;;;;22.43;20.23;;;10.50;99.90;;;;;;5085728;28;20492;-70
2023/03/21 08:45:08;;;;;;;22.10;20.00;;;10.60;99.90;;;;;;5095712;28;20787;-70
2023/03/21 08:47:36;;;;;;;23.23;20.80;;;10.60;99.90;;;;;;5089568;28;20820;-70
2023/03/21 08:50:05;;;;;;;23.97;21.40;;;10.70;99.90;;;;;;5088052;28;20474;-70
2023/03/21 08:52:32;;;;;;;24.53;22.03;;;10.70;99.90;;;;;;5086632;28;20735;-71
2023/03/21 08:54:58;;;;;;;24.37;22.03;;;10.80;99.90;;;;;;5073460;28;20850;-71
2023/03/21 08:57:25;;;;;;;26.50;22.20;;;10.90;99.90;;;;;;5081286;28;20461;-71
2023/03/21 08:59:52;;;;;;;23.63;21.53;;;10.80;99.90;;;;;;5089853;28;20454;-71
2023/03/21 09:02:19;;;;;;;27.53;22.70;;;10.80;99.90;;;;;;5084013;28;20470;-70
2023/03/21 09:04:47;;;;;;;26.33;22.60;;;10.80;99.90;;;;;;5085623;28;20509;-71
2023/03/21 09:07:16;;;;;;;25.67;22.10;;;10.80;99.90;;;;;;5080528;28;20458;-70
2023/03/21 09:09:43;;;;;;;24.70;21.23;;;10.80;99.90;;;;;;5087728;28;20462;-70
2023/03/21 09:12:10;;;;;;;25.80;20.70;;;10.90;99.90;;;;;;5093161;28;20493;-69
2023/03/21 09:14:37;;;;;;;31.73;20.93;;;10.90;99.90;;;;;;5087350;28;20563;-71
2023/03/21 09:17:04;;;;;;;28.73;20.10;;;10.90;99.90;;;;;;5085225;28;20477;-72
2023/03/21 09:19:31;;;;;;;28.60;19.33;;;11.00;99.90;;;;;;5089648;28;20473;-70
2023/03/21 09:22:00;;;;;;;28.80;21.10;;;11.10;99.90;;;;;;5083159;28;21036;-69
2023/03/21 09:24:27;;;;;;;27.30;21.83;;;11.20;99.90;;;;;;5087155;28;20963;-70
2023/03/21 09:26:54;;;;;;;25.90;21.73;;;11.20;99.90;;;;;;5086914;28;20502;-69
2023/03/21 09:29:22;;;;;;;25.63;22.90;;;11.20;99.90;;;;;;5083543;28;20472;-69
2023/03/21 09:31:48;;;;;;;34.83;23.40;;;11.20;99.90;;;;;;5087834;28;20501;-71
2023/03/21 09:34:16;;;;;;;30.70;23.60;;;11.40;99.90;;;;;;5087034;28;20616;-70
2023/03/21 09:36:47;;;;;;;31.77;24.07;;;11.40;99.90;;;;;;5092496;28;20468;-69
2023/03/21 09:39:16;;;;;;;23.87;21.80;;;11.60;99.90;;;;;;5086725;28;20457;-71
2023/03/21 09:42:00;;;;;;;27.93;23.63;;;11.70;99.90;;;;;;5083957;28;20456;-69
2023/03/21 09:44:37;;;;;;;26.63;23.93;;;11.70;99.90;;;;;;5083790;28;20454;-71
2023/03/21 09:47:12;;;;;;;29.00;26.00;;;11.50;99.90;;;;;;5085001;28;20483;-69
2023/03/21 09:49:43;;;;;;;29.07;24.10;;;11.50;99.90;;;;;;5086819;28;20491;-69
2023/03/21 09:52:15;;;;;;;25.43;22.87;;;11.40;99.90;;;;;;5085519;28;20898;-69
2023/03/21 09:54:43;;;;;;;26.20;23.47;;;11.50;99.90;;;;;;5085288;28;20473;-70
2023/03/21 09:57:19;;;;;;;24.77;22.53;;;11.50;99.90;;;;;;5089079;28;20557;-69
2023/03/21 09:59:48;;;;;;;27.47;24.30;;;11.60;99.90;;;;;;5083384;28;20545;-70
2023/03/21 10:02:31;;;;;;;24.73;22.23;;;11.70;99.90;;;;;;5087938;28;20516;-69
2023/03/21 10:04:59;;;;;;;24.67;20.90;;;11.90;99.90;;;;;;5084994;28;20473;-71
2023/03/21 10:07:27;;;;;;;24.73;22.30;;;12.30;99.90;;;;;;5083613;28;20458;-71
2023/03/21 10:09:56;;;;;;;24.47;21.97;;;12.30;99.90;;;;;;5079273;28;20458;-71
2023/03/21 10:12:29;;;;;;;26.93;21.97;;;12.40;99.90;;;;;;5087877;28;20520;-70
2023/03/21 10:14:58;;;;;;;23.23;21.13;;;12.40;99.90;;;;;;5086982;28;21014;-70
2023/03/21 10:17:29;;;;;;;28.77;21.80;;;12.50;99.90;;;;;;5085857;28;20490;-71
2023/03/21 10:20:09;;;;;;;23.77;19.93;;;12.50;99.90;;;;;;5091514;28;20563;-70
2023/03/21 10:22:36;;;;;;;36.37;20.70;;;12.50;99.90;;;;;;5094356;28;20448;-70
2023/03/21 10:25:07;;;;;;;22.53;18.87;;;12.60;99.90;;;;;;5086082;28;20473;-70
2023/03/21 10:27:36;;;;;;;20.93;17.90;;;12.70;99.90;;;;;;5089358;28;21005;-70
2023/03/21 10:30:06;;;;;;;19.33;17.37;;;13.00;99.90;;;;;;5086997;28;20556;-71
2023/03/21 10:32:34;;;;;;;26.47;18.30;;;13.20;99.90;;;;;;5087995;28;20525;-71
2023/03/21 10:35:03;;;;;;;25.03;18.30;;;13.30;99.90;;;;;;5087230;28;20465;-70
2023/03/21 10:37:32;;;;;;;19.90;17.93;;;13.40;99.90;;;;;;5093514;28;20500;-71
2023/03/21 10:39:59;;;;;;;24.47;19.10;;;13.40;99.90;;;;;;5087093;28;20968;-70
2023/03/21 10:42:31;;;;;;;21.73;19.30;;;13.50;99.90;;;;;;5082159;28;20488;-72
2023/03/21 10:44:58;;;;;;;22.30;19.67;;;13.50;99.90;;;;;;5089973;28;20569;-70
2023/03/21 10:47:27;;;;;;;19.70;17.73;;;13.60;99.90;;;;;;5094399;28;20466;-70
2023/03/21 10:50:00;;;;;;;22.70;19.57;;;13.70;99.90;;;;;;5091090;28;20946;-70
2023/03/21 10:52:30;;;;;;;19.70;17.90;;;13.80;99.90;;;;;;5088090;28;21000;-70
2023/03/21 10:55:08;;;;;;;22.47;20.37;;;14.10;99.90;;;;;;5094260;28;20453;-71
2023/03/21 10:57:37;;;;;;;20.90;18.90;;;14.00;99.90;;;;;;5088532;28;20532;-70
2023/03/21 11:00:13;;;;;;;20.17;18.60;;;13.80;99.90;;;;;;5083620;28;20458;-70
2023/03/21 11:02:41;;;;;;;20.63;19.00;;;13.80;99.90;;;;;;5093370;28;20967;-70
2023/03/21 11:05:18;;;;;;;20.90;19.00;;;13.50;99.90;;;;;;5092007;28;20476;-71
2023/03/21 11:07:45;;;;;;;21.60;19.53;;;13.50;99.90;;;;;;5092910;28;20468;-70
2023/03/21 11:10:14;;;;;;;20.60;18.30;;;13.50;99.90;;;;;;5088678;28;20462;-70
2023/03/21 11:12:47;;;;;;;20.80;18.90;;;13.50;99.90;;;;;;5090629;28;20511;-70
2023/03/21 11:15:27;;;;;;;19.87;18.13;;;13.40;99.90;;;;;;5095270;28;20458;-70
2023/03/21 11:17:54;;;;;;;30.80;21.47;;;13.40;99.90;;;;;;5088936;28;20464;-70
2023/03/21 11:20:22;;;;;;;23.67;20.63;;;13.40;99.90;;;;;;5082719;28;21162;-70
2023/03/21 11:22:49;;;;;;;26.30;22.10;;;13.50;99.90;;;;;;5098139;28;20462;-70
2023/03/21 11:25:22;;;;;;;41.93;27.23;;;13.40;99.90;;;;;;5091822;28;20457;-71
2023/03/21 11:27:53;;;;;;;21.87;18.80;;;13.40;99.90;;;;;;5091829;28;20962;-70
2023/03/21 11:30:23;;;;;;;19.20;17.30;;;13.30;99.90;;;;;;5086983;28;20975;-71
2023/03/21 11:32:54;;;;;;;18.97;17.50;;;13.20;99.90;;;;;;5088528;28;20826;-70
2023/03/21 11:35:23;;;;;;;20.93;16.80;;;13.10;99.90;;;;;;5090427;28;20458;-70
2023/03/21 11:37:52;;;;;;;20.47;17.03;;;12.90;99.90;;;;;;5095054;28;20957;-69
2023/03/21 11:40:22;;;;;;;21.87;17.53;;;12.70;99.90;;;;;;5088169;28;20469;-71
2023/03/21 11:42:52;;;;;;;20.83;17.77;;;12.50;99.90;;;;;;5087669;28;20480;-70
2023/03/21 11:45:21;;;;;;;20.20;18.43;;;12.50;99.90;;;;;;5084269;28;21007;-70
2023/03/21 11:47:50;;;;;;;21.47;19.50;;;12.50;99.90;;;;;;5089713;28;20465;-69
2023/03/21 11:50:20;;;;;;;22.00;19.83;;;12.50;99.90;;;;;;5089280;28;20535;-68
2023/03/21 11:52:59;;;;;;;22.63;20.40;;;12.30;99.90;;;;;;5086876;28;20487;-69
2023/03/21 11:55:36;;;;;;;22.03;20.10;;;12.20;99.90;;;;;;5097022;28;20622;-69
2023/03/21 11:58:16;;;;;;;24.27;22.03;;;12.10;99.90;;;;;;5097016;28;20464;-69
2023/03/21 12:00:51;;;;;;;22.63;20.63;;;12.20;99.90;;;;;;5091548;28;20454;-69
2023/03/21 12:03:43;;;;;;;24.97;22.63;;;12.20;99.90;;;;;;5092356;28;20685;-69
2023/03/21 12:06:17;;;;;;;27.10;24.37;;;12.20;99.90;;;;;;5088038;28;20711;-68
2023/03/21 12:08:55;;;;;;;25.23;22.93;;;12.40;99.90;;;;;;5086726;28;21360;-70
2023/03/21 12:11:28;;;;;;;27.73;25.13;;;12.60;99.90;;;;;;5085406;28;20471;-70
2023/03/21 12:14:06;;;;;;;24.77;22.60;;;12.80;99.90;;;;;;5092180;28;20457;-70
2023/03/21 12:16:42;;;;;;;29.00;20.00;;;12.90;99.90;;;;;;5090636;28;20557;-70
2023/03/21 12:19:53;;;;;;;21.20;19.10;;;13.00;99.90;;;;;;5087983;28;20998;-69
2023/03/21 12:22:30;;;;;;;16.77;15.20;;;13.20;99.90;;;;;;5084857;28;20980;-69
2023/03/21 12:25:07;;;;;;;17.43;15.17;;;13.30;99.90;;;;;;5089129;28;20450;-71
2023/03/21 12:27:44;;;;;;;17.53;13.77;;;13.40;99.90;;;;;;5086498;28;20563;-70
2023/03/21 12:30:26;;;;;;;22.00;13.93;;;13.60;99.90;;;;;;5089738;28;20552;-70
2023/03/21 12:33:08;;;;;;;17.13;13.80;;;13.70;99.90;;;;;;5087196;28;20493;-70
2023/03/21 12:35:44;;;;;;;18.93;13.60;;;13.80;99.90;;;;;;5091982;28;20456;-70
2023/03/21 12:38:16;;;;;;;15.00;13.60;;;13.90;99.90;;;;;;5088361;28;20473;-70
2023/03/21 12:41:05;;;;;;;17.70;14.40;;;14.10;99.90;;;;;;5088809;28;21561;-70
2023/03/21 12:43:42;;;;;;;16.60;15.10;;;14.50;99.90;;;;;;5093853;28;20844;-71
2023/03/21 12:46:19;;;;;;;15.73;14.00;;;14.70;99.90;;;;;;5087874;28;21713;-71
2023/03/21 12:48:51;;;;;;;16.17;14.63;;;14.90;99.90;;;;;;5084584;28;20462;-71